Time;durP1;ratioP1;P1;durP2;ratioP2;P2;SDS_P1;SDS_P2;PMS_P1;PMS_P2;Temp;Humidity;BMP_temperature;BMP_pressure;BME280_temperature;BME280_humidity;BME280_pressure;Samples;Min_cycle;Max_cycle;Signal;HPM_P1;HPM_P2
2022/09/16 00:02:46;;;;;;;0.00;0.00;;;;;;;9.77;100.00;100470.53;10357051;28;20018;-73
2022/09/16 00:07:46;;;;;;;0.00;0.00;;;;;;;9.82;100.00;100473.56;10356917;28;20029;-73
2022/09/16 00:12:47;;;;;;;0.00;0.00;;;;;;;9.92;100.00;100477.75;10374167;28;20061;-72
2022/09/16 00:17:48;;;;;;;0.00;0.00;;;;;;;10.04;100.00;100507.53;10374105;28;20383;-74
2022/09/16 00:22:48;;;;;;;0.08;0.08;;;;;;;10.11;100.00;100475.75;10374083;28;20534;-73
2022/09/16 00:27:48;;;;;;;0.10;0.10;;;;;;;10.09;100.00;100472.44;10374401;28;20041;-73
2022/09/16 00:32:49;;;;;;;0.10;0.10;;;;;;;10.00;100.00;100471.59;10355874;28;20030;-73
2022/09/16 00:37:49;;;;;;;0.00;0.00;;;;;;;9.93;100.00;100473.25;10373295;28;20030;-72
2022/09/16 00:42:49;;;;;;;0.10;0.10;;;;;;;9.88;100.00;100480.88;10373438;28;20352;-72
2022/09/16 00:48:05;;;;;;;0.10;0.10;;;;;;;9.93;100.00;100500.69;10355233;28;20751;-73
2022/09/16 00:53:11;;;;;;;0.10;0.10;;;;;;;10.00;100.00;100497.38;10372784;28;20432;-74
2022/09/16 00:59:01;;;;;;;0.00;0.00;;;;;;;10.03;100.00;100491.72;10372973;28;20033;-73
2022/09/16 01:04:08;;;;;;;0.00;0.00;;;;;;;10.00;100.00;100492.03;10246755;28;20031;-73
2022/09/16 01:09:09;;;;;;;0.05;0.05;;;;;;;9.92;100.00;100483.06;10330417;28;20029;-72
2022/09/16 01:19:50;;;;;;;0.00;0.00;;;;;;;9.90;100.00;100495.69;10371669;28;20058;-72
2022/09/16 01:25:06;;;;;;;0.10;0.10;;;;;;;9.97;100.00;100496.69;10353721;28;20026;-73
2022/09/16 01:30:34;;;;;;;0.10;0.10;;;;;;;9.95;100.00;100496.03;10371814;28;20377;-72
2022/09/16 01:36:00;;;;;;;0.10;0.10;;;;;;;9.87;100.00;100476.56;10370993;28;20088;-72
2022/09/16 01:41:23;;;;;;;0.00;0.00;;;;;;;9.81;100.00;100479.88;10371244;28;20029;-73
2022/09/16 01:46:46;;;;;;;0.10;0.10;;;;;;;9.76;100.00;100472.38;10370559;28;20392;-72
2022/09/16 01:52:04;;;;;;;0.00;0.00;;;;;;;9.77;100.00;100465.22;10370341;28;20033;-73
2022/09/16 01:57:14;;;;;;;0.00;0.00;;;;;;;9.79;100.00;100472.03;10370300;28;20044;-73
2022/09/16 02:02:18;;;;;;;0.00;0.00;;;;;;;9.77;100.00;100468.69;10370114;28;20477;-73
2022/09/16 02:07:24;;;;;;;0.00;0.00;;;;;;;9.78;100.00;100459.75;10369725;28;20029;-73
2022/09/16 02:12:30;;;;;;;0.10;0.10;;;;;;;9.82;100.00;100469.06;10369442;28;20036;-74
2022/09/16 02:17:35;;;;;;;0.10;0.10;;;;;;;9.93;100.00;100497.19;10353176;28;20385;-74
2022/09/16 02:22:43;;;;;;;0.00;0.00;;;;;;;9.99;100.00;100461.94;10369989;28;20022;-74
2022/09/16 02:27:46;;;;;;;0.10;0.10;;;;;;;9.93;100.00;100454.63;10369776;28;20017;-74
2022/09/16 02:32:56;;;;;;;0.10;0.10;;;;;;;9.86;100.00;100459.78;10351748;28;20037;-74
2022/09/16 02:37:58;;;;;;;0.10;0.10;;;;;;;9.81;100.00;100447.97;10351614;28;20030;-74
2022/09/16 02:42:59;;;;;;;0.10;0.10;;;;;;;9.75;100.00;100452.09;10369219;28;20112;-73
2022/09/16 02:48:26;;;;;;;0.08;0.08;;;;;;;9.79;100.00;100457.91;10380475;23;20191;-74
2022/09/16 02:53:45;;;;;;;0.10;0.10;;;;;;;9.79;100.00;100455.25;10392208;28;20036;-74
2022/09/16 02:58:45;;;;;;;0.10;0.10;;;;;;;9.69;100.00;100453.59;10346966;28;20026;-74
2022/09/16 03:03:46;;;;;;;0.10;0.10;;;;;;;9.59;100.00;100447.56;10366047;28;20491;-74
2022/09/16 03:08:48;;;;;;;0.10;0.10;;;;;;;9.50;100.00;100446.69;10364350;28;20037;-74
2022/09/16 03:14:01;;;;;;;0.10;0.10;;;;;;;9.45;100.00;100443.72;10348525;28;20327;-74
2022/09/16 03:19:30;;;;;;;0.10;0.10;;;;;;;9.47;100.00;100435.56;10373214;28;20025;-74
2022/09/16 03:24:44;;;;;;;0.00;0.00;;;;;;;9.53;100.00;100438.41;10340566;28;20045;-73
2022/09/16 03:30:03;;;;;;;;;;;;;;;9.64;100.00;100434.63;10381349;28;20021;-73
2022/09/16 03:35:12;;;;;;;0.00;0.00;;;;;;;9.73;100.00;100449.59;10414421;28;20850;-75
2022/09/16 03:40:17;;;;;;;0.00;0.00;;;;;;;9.79;100.00;100440.13;10413975;28;20053;-75
2022/09/16 03:45:18;;;;;;;;;;;;;;;9.81;100.00;100424.84;10396142;28;20033;-75
2022/09/16 03:50:20;;;;;;;0.10;0.10;;;;;;;9.73;100.00;100419.50;10407989;28;20414;-74
2022/09/16 03:55:20;;;;;;;0.00;0.00;;;;;;;9.65;100.00;100419.47;10413269;28;20057;-74
2022/09/16 04:00:21;;;;;;;0.10;0.10;;;;;;;9.56;100.00;100415.97;10413403;28;20026;-74
2022/09/16 04:05:22;;;;;;;0.10;0.10;;;;;;;9.49;100.00;100413.13;10377845;28;20582;-74
2022/09/16 04:10:22;;;;;;;0.10;0.10;;;;;;;9.39;100.00;100411.59;10372487;28;20076;-74
2022/09/16 04:15:22;;;;;;;0.00;0.00;;;;;;;9.29;100.00;100406.44;10371367;28;20505;-74
2022/09/16 04:20:23;;;;;;;0.00;0.00;;;;;;;9.22;100.00;100400.06;10387238;28;20273;-73
2022/09/16 04:25:23;;;;;;;0.00;0.00;;;;;;;9.18;100.00;100394.25;10412165;28;20095;-74
2022/09/16 04:30:24;;;;;;;0.10;0.10;;;;;;;9.19;100.00;100398.59;10412327;28;20018;-73
2022/09/16 04:35:24;;;;;;;0.00;0.00;;;;;;;9.18;100.00;100412.88;10356183;28;20033;-74
2022/09/16 04:40:24;;;;;;;0.00;0.00;;;;;;;9.23;100.00;100418.53;10411684;28;20033;-74
2022/09/16 04:45:25;;;;;;;0.00;0.00;;;;;;;9.26;100.00;100420.88;10411705;28;20120;-73
2022/09/16 04:50:25;;;;;;;0.00;0.00;;;;;;;9.27;100.00;100429.66;10405327;28;20018;-74
2022/09/16 04:55:25;;;;;;;0.00;0.00;;;;;;;9.33;100.00;100418.41;10393137;28;20032;-73
2022/09/16 05:00:26;;;;;;;0.00;0.00;;;;;;;9.38;100.00;100413.44;10411182;28;20025;-74
2022/09/16 05:05:26;;;;;;;0.08;0.08;;;;;;;9.34;100.00;100401.47;10410068;28;20123;-74
2022/09/16 05:10:27;;;;;;;0.00;0.00;;;;;;;9.33;100.00;100391.81;10397146;28;20108;-74
2022/09/16 05:15:27;;;;;;;0.10;0.10;;;;;;;9.31;100.00;100399.13;10409992;28;20032;-74
2022/09/16 05:20:27;;;;;;;0.00;0.00;;;;;;;9.30;100.00;100387.66;10405005;28;20024;-74
2022/09/16 05:25:28;;;;;;;0.00;0.00;;;;;;;9.33;100.00;100386.50;10392175;28;20029;-74
2022/09/16 05:30:28;;;;;;;0.10;0.10;;;;;;;9.36;100.00;100388.84;10409708;28;20021;-75
2022/09/16 05:35:28;;;;;;;0.10;0.10;;;;;;;9.41;100.00;100389.19;10401541;28;20500;-74
2022/09/16 05:40:29;;;;;;;0.10;0.10;;;;;;;10.06;100.00;100387.59;10409826;28;20026;-74
2022/09/16 05:45:29;;;;;;;0.00;0.00;;;;;;;11.61;100.00;100389.81;10408394;28;20056;-75
2022/09/16 05:50:29;;;;;;;0.10;0.10;;;;;;;12.82;100.00;100396.13;10405005;28;20735;-74
2022/09/16 05:55:30;;;;;;;0.00;0.00;;;;;;;12.87;100.00;100396.41;10408701;28;20022;-74
2022/09/16 06:00:30;;;;;;;0.00;0.00;;;;;;;13.54;100.00;100388.22;10391278;28;20021;-75
2022/09/16 06:05:31;;;;;;;0.10;0.10;;;;;;;14.65;100.00;100398.50;10408405;28;20025;-75
2022/09/16 06:10:39;;;;;;;0.08;0.08;;;;;;;15.66;100.00;100392.56;10403258;28;20608;-75
2022/09/16 06:15:47;;;;;;;0.00;0.00;;;;;;;16.57;100.00;100387.44;10408138;28;20038;-75
2022/09/16 06:20:48;;;;;;;0.10;0.10;;;;;;;16.86;100.00;100399.63;10385829;28;20376;-76
2022/09/16 06:25:58;;;;;;;0.10;0.10;;;;;;;17.48;100.00;100394.63;10367929;28;20025;-76
2022/09/16 06:31:06;;;;;;;0.10;0.10;;;;;;;17.67;100.00;100375.91;10338428;28;20715;-76
2022/09/16 06:36:07;;;;;;;0.00;0.00;;;;;;;18.08;100.00;100384.34;10376555;28;20026;-77
2022/09/16 06:41:10;;;;;;;0.10;0.10;;;;;;;18.69;100.00;100382.75;10389944;28;20037;-77
2022/09/16 06:46:14;;;;;;;0.10;0.10;;;;;;;17.90;100.00;100380.75;10361145;28;20329;-76
2022/09/16 06:51:23;;;;;;;0.03;0.03;;;;;;;17.83;100.00;100364.63;10392208;28;20108;-77
2022/09/16 06:56:24;;;;;;;0.08;0.08;;;;;;;19.02;100.00;100367.28;10393924;28;20045;-77
2022/09/16 07:01:29;;;;;;;0.00;0.00;;;;;;;19.74;100.00;100367.38;10390546;28;20460;-77
2022/09/16 07:06:31;;;;;;;0.10;0.10;;;;;;;19.99;100.00;100372.63;10394419;28;20034;-77
2022/09/16 07:11:32;;;;;;;0.10;0.10;;;;;;;20.26;100.00;100363.00;10384505;28;20029;-76
2022/09/16 07:16:32;;;;;;;0.10;0.10;;;;;;;20.56;100.00;100367.50;10397835;28;20472;-76
2022/09/16 07:21:32;;;;;;;0.03;0.03;;;;;;;20.53;100.00;100360.69;10396873;28;20031;-76
2022/09/16 07:26:36;;;;;;;0.00;0.00;;;;;;;21.05;100.00;100368.03;10406454;28;20025;-76
2022/09/16 07:31:36;;;;;;;0.10;0.10;;;;;;;21.56;83.60;100366.34;10409199;28;20331;-76
2022/09/16 07:36:42;;;;;;;0.00;0.00;;;;;;;20.27;88.92;100377.34;10389689;28;20072;-76
2022/09/16 07:41:44;;;;;;;0.32;0.20;;;;;;;17.77;96.32;100377.09;10393904;28;20534;-77
2022/09/16 07:46:46;;;;;;;0.00;0.00;;;;;;;16.11;100.00;100379.41;10412746;28;20024;-77
2022/09/16 07:51:47;;;;;;;0.10;0.10;;;;;;;16.03;100.00;100375.09;10394516;28;20477;-77
2022/09/16 07:56:47;;;;;;;0.00;0.00;;;;;;;17.64;100.00;100371.78;10405664;28;20029;-77
2022/09/16 08:01:48;;;;;;;0.00;0.00;;;;;;;18.78;96.26;100380.63;10396623;28;20347;-76
2022/09/16 08:06:48;;;;;;;0.10;0.10;;;;;;;19.73;93.81;100381.97;10402300;28;20649;-77
2022/09/16 08:11:49;;;;;;;0.10;0.10;;;;;;;19.23;92.69;100381.13;10372518;28;20088;-77
2022/09/16 08:16:50;;;;;;;0.00;0.00;;;;;;;18.99;96.93;100385.59;10372920;28;20018;-76
2022/09/16 08:21:50;;;;;;;0.10;0.10;;;;;;;17.64;99.05;100374.47;10397395;28;20026;-76
2022/09/16 08:26:51;;;;;;;0.00;0.00;;;;;;;17.99;100.00;100388.34;10402243;28;20009;-76
2022/09/16 08:31:51;;;;;;;0.10;0.10;;;;;;;17.55;100.00;100389.22;10371949;28;20022;-76
2022/09/16 08:36:52;;;;;;;0.10;0.10;;;;;;;16.78;100.00;100388.28;10378444;28;20284;-76
2022/09/16 08:42:29;;;;;;;0.10;0.10;;;;;;;16.72;100.00;100377.28;10393127;28;20044;-76
2022/09/16 08:47:51;;;;;;;0.00;0.00;;;;;;;17.55;100.00;100381.97;10411114;22;20508;-76
2022/09/16 08:52:52;;;;;;;0.10;0.10;;;;;;;18.08;100.00;100384.34;10373365;28;20030;-76
2022/09/16 08:57:59;;;;;;;0.10;0.10;;;;;;;17.85;100.00;100384.91;10372346;28;20026;-76
2022/09/16 09:03:15;;;;;;;0.10;0.10;;;;;;;17.17;100.00;100388.16;10372340;28;20466;-76
2022/09/16 09:08:26;;;;;;;0.10;0.10;;;;;;;16.42;100.00;100378.78;10372279;28;20100;-76
2022/09/16 09:13:32;;;;;;;0.10;0.10;;;;;;;16.33;100.00;100382.72;10371733;28;20037;-76
2022/09/16 09:18:48;;;;;;;0.00;0.00;;;;;;;16.37;100.00;100360.59;10371489;28;20032;-76
2022/09/16 09:24:20;;;;;;;0.10;0.10;;;;;;;16.94;100.00;100375.19;10393838;28;20100;-77
2022/09/16 09:29:47;;;;;;;0.10;0.10;;;;;;;17.30;93.59;100357.66;10388672;28;20022;-77
2022/09/16 09:35:01;;;;;;;0.10;0.10;;;;;;;17.41;95.59;100359.66;10375725;28;20377;-77
2022/09/16 09:40:08;;;;;;;;;;;;;;;17.63;99.79;100351.28;10377231;28;20550;-77
2022/09/16 09:45:42;;;;;;;0.10;0.10;;;;;;;18.45;99.37;100360.19;10372636;28;19909;-77
2022/09/16 09:50:45;;;;;;;0.10;0.10;;;;;;;18.05;97.48;100348.91;10389648;28;20533;-77
2022/09/16 09:55:45;;;;;;;0.10;0.10;;;;;;;17.22;100.00;100344.47;10410791;28;20021;-77
2022/09/16 10:00:46;;;;;;;0.10;0.10;;;;;;;17.48;100.00;100335.38;10409769;28;20021;-77
2022/09/16 10:05:47;;;;;;;0.00;0.00;;;;;;;17.17;100.00;100328.13;10402561;28;20256;-75
2022/09/16 10:10:54;;;;;;;0.10;0.10;;;;;;;16.36;100.00;100315.13;10381583;28;20025;-76
2022/09/16 10:16:09;;;;;;;0.00;0.00;;;;;;;16.53;100.00;100330.59;10370106;28;20097;-76
2022/09/16 10:21:13;;;;;;;0.10;0.10;;;;;;;16.56;100.00;100312.41;10391718;28;20021;-76
2022/09/16 10:26:19;;;;;;;0.10;0.10;;;;;;;16.86;100.00;100296.59;10408572;28;20033;-75
2022/09/16 10:31:21;;;;;;;0.10;0.10;;;;;;;17.47;100.00;100296.06;10407860;28;20018;-76
2022/09/16 10:36:25;;;;;;;0.10;0.10;;;;;;;18.22;98.91;100301.50;10397567;28;20033;-76
2022/09/16 10:41:33;;;;;;;0.00;0.00;;;;;;;18.95;92.32;100292.63;10367488;28;20109;-76
2022/09/16 10:46:33;;;;;;;0.10;0.10;;;;;;;19.16;91.59;100279.69;10350301;28;20046;-76
2022/09/16 10:51:33;;;;;;;0.10;0.10;;;;;;;18.00;95.07;100292.97;10393079;28;20028;-75
2022/09/16 10:56:48;;;;;;;0.10;0.10;;;;;;;16.14;100.00;100293.84;10390710;28;20040;-77
2022/09/16 11:02:27;;;;;;;0.10;0.10;;;;;;;14.97;100.00;100283.56;10412985;28;20036;-77
2022/09/16 11:07:46;;;;;;;0.10;0.10;;;;;;;14.68;100.00;100285.50;10381874;28;20033;-77
2022/09/16 11:12:58;;;;;;;0.10;0.10;;;;;;;14.92;100.00;100289.53;10412931;28;20383;-77
2022/09/16 11:18:05;;;;;;;0.10;0.10;;;;;;;14.75;100.00;100294.44;10400192;28;20075;-77
2022/09/16 11:23:29;;;;;;;0.10;0.10;;;;;;;14.63;100.00;100282.59;10394417;28;20033;-77
2022/09/16 11:28:56;;;;;;;0.10;0.10;;;;;;;15.27;100.00;100276.88;10412130;28;20053;-77
2022/09/16 11:34:09;;;;;;;0.10;0.10;;;;;;;15.81;100.00;100277.75;10411607;28;20488;-77
2022/09/16 11:39:27;;;;;;;0.10;0.10;;;;;;;16.38;100.00;100259.31;10397904;28;20136;-77
2022/09/16 11:44:51;;;;;;;0.10;0.10;;;;;;;16.82;100.00;100260.41;10368374;28;20125;-77
2022/09/16 11:50:03;;;;;;;0.00;0.00;;;;;;;16.97;100.00;100252.88;10389638;28;20079;-77
2022/09/16 11:55:19;;;;;;;0.10;0.10;;;;;;;15.98;100.00;100272.81;10410864;28;20036;-77
2022/09/16 12:00:19;;;;;;;0.10;0.10;;;;;;;14.94;100.00;100261.47;10419292;28;20437;-77
2022/09/16 12:05:26;;;;;;;0.10;0.10;;;;;;;14.30;100.00;100261.78;10419748;28;20053;-77
2022/09/16 12:10:38;;;;;;;0.10;0.10;;;;;;;14.27;100.00;100252.28;10421416;28;20013;-77
2022/09/16 12:15:51;;;;;;;0.03;0.03;;;;;;;14.82;100.00;100236.28;10423818;28;20029;-76
2022/09/16 12:21:18;;;;;;;0.10;0.10;;;;;;;15.01;100.00;100228.50;10424218;28;20116;-76
2022/09/16 12:26:24;;;;;;;0.10;0.10;;;;;;;15.19;100.00;100219.88;10424264;28;20025;-77
2022/09/16 12:32:03;;;;;;;0.10;0.10;;;;;;;14.77;100.00;100252.13;10405889;28;20014;-77
2022/09/16 12:37:06;;;;;;;0.10;0.10;;;;;;;14.21;100.00;100244.22;10382056;28;20018;-77
2022/09/16 12:42:15;;;;;;;0.10;0.10;;;;;;;13.97;100.00;100232.94;10380478;28;20034;-76
2022/09/16 12:47:51;;;;;;;0.10;0.10;;;;;;;13.92;100.00;100239.91;10362117;28;20029;-76
2022/09/16 12:53:04;;;;;;;0.00;0.00;;;;;;;13.84;100.00;100246.22;10376855;28;20029;-77
2022/09/16 12:58:46;;;;;;;0.10;0.10;;;;;;;13.82;100.00;100246.44;10386154;28;20033;-77
2022/09/16 13:03:52;;;;;;;0.00;0.00;;;;;;;13.83;100.00;100239.22;10379121;28;20080;-77
2022/09/16 13:08:54;;;;;;;0.10;0.10;;;;;;;13.75;100.00;100236.69;10396533;28;20030;-77
2022/09/16 13:13:57;;;;;;;0.10;0.10;;;;;;;13.40;100.00;100230.44;10396398;28;20032;-78
2022/09/16 13:19:20;;;;;;;0.00;0.00;;;;;;;12.99;100.00;100220.34;10403064;28;20032;-78
2022/09/16 13:24:34;;;;;;;0.10;0.10;;;;;;;12.60;100.00;100205.53;10418554;28;20491;-77
2022/09/16 13:29:37;;;;;;;;;;;;;;;12.28;100.00;100209.44;10418829;28;20124;-78
2022/09/16 13:34:37;;;;;;;0.10;0.10;;;;;;;11.97;100.00;100181.06;10418248;28;19932;-77
2022/09/16 13:39:37;;;;;;;0.10;0.10;;;;;;;11.78;100.00;100153.91;10398208;28;20028;-78
2022/09/16 13:44:41;;;;;;;0.10;0.10;;;;;;;11.65;100.00;100156.38;10414488;28;20040;-77
2022/09/16 13:49:55;;;;;;;0.07;0.07;;;;;;;11.53;100.00;100155.16;10400163;28;20260;-78
2022/09/16 13:55:00;;;;;;;0.10;0.10;;;;;;;11.38;100.00;100116.97;10417133;28;20045;-77
2022/09/16 14:00:14;;;;;;;0.10;0.10;;;;;;;11.22;100.00;100089.44;10415650;28;20432;-77
2022/09/16 14:05:27;;;;;;;0.10;0.10;;;;;;;11.13;100.00;100087.03;10413104;28;20027;-77
2022/09/16 14:10:50;;;;;;;0.10;0.10;;;;;;;11.05;100.00;100063.94;10389395;28;20076;-77
2022/09/16 14:15:52;;;;;;;0.10;0.10;;;;;;;11.03;100.00;100058.00;10350988;28;20037;-76
2022/09/16 14:21:01;;;;;;;0.10;0.10;;;;;;;11.08;100.00;100053.78;10373859;28;20037;-74
2022/09/16 14:26:14;;;;;;;0.10;0.10;;;;;;;11.07;100.00;100033.44;10382761;28;20500;-74
2022/09/16 14:31:19;;;;;;;0.10;0.10;;;;;;;11.09;100.00;100043.94;10389207;28;20370;-74
2022/09/16 14:36:35;;;;;;;0.00;0.00;;;;;;;11.11;100.00;100065.88;10385016;28;20022;-74
2022/09/16 14:41:36;;;;;;;0.10;0.10;;;;;;;11.17;100.00;100057.19;10388729;28;20045;-75
2022/09/16 14:52:03;;;;;;;0.10;0.10;;;;;;;11.32;100.00;100039.38;10415474;28;20135;-79
2022/09/16 14:57:16;;;;;;;0.10;0.10;;;;;;;11.37;100.00;100029.97;10419162;28;20200;-77
2022/09/16 15:02:34;;;;;;;0.10;0.10;;;;;;;11.41;100.00;100020.63;10422100;28;20029;-77
2022/09/16 15:07:38;;;;;;;0.00;0.00;;;;;;;11.52;100.00;100046.84;10407617;28;20017;-78
2022/09/16 15:12:45;;;;;;;0.05;0.05;;;;;;;11.70;100.00;100044.59;10406897;28;20049;-77
2022/09/16 15:17:55;;;;;;;0.10;0.10;;;;;;;11.91;100.00;100049.19;10408879;28;20022;-77
2022/09/16 15:22:55;;;;;;;0.10;0.10;;;;;;;12.08;100.00;100055.16;10378345;28;20018;-76
2022/09/16 15:28:25;;;;;;;0.10;0.10;;;;;;;12.23;100.00;100050.59;10397502;28;20385;-76
2022/09/16 15:33:34;;;;;;;0.10;0.10;;;;;;;12.40;100.00;100051.19;10395238;28;20104;-77
2022/09/16 15:38:34;;;;;;;0.10;0.10;;;;;;;12.54;100.00;100044.16;10420277;28;20025;-77
2022/09/16 15:43:38;;;;;;;0.00;0.00;;;;;;;12.72;100.00;100045.53;10395816;28;20036;-77
2022/09/16 15:48:52;;;;;;;0.10;0.10;;;;;;;12.87;100.00;100038.25;10391799;28;20034;-77
2022/09/16 15:53:58;;;;;;;0.10;0.10;;;;;;;13.03;100.00;100042.47;10368641;28;20243;-77
2022/09/16 15:59:18;;;;;;;0.10;0.10;;;;;;;13.09;100.00;100049.75;10418189;28;20088;-77
2022/09/16 16:04:30;;;;;;;0.10;0.10;;;;;;;13.20;100.00;100053.72;10390785;28;20021;-77
2022/09/16 16:09:35;;;;;;;0.05;0.05;;;;;;;13.38;100.00;100070.16;10389620;28;20044;-77
2022/09/16 16:14:37;;;;;;;0.10;0.10;;;;;;;13.49;100.00;100072.25;10417223;28;20046;-77
2022/09/16 16:19:38;;;;;;;0.10;0.10;;;;;;;13.54;100.00;100083.19;10375776;28;20026;-77
2022/09/16 16:24:38;;;;;;;0.10;0.10;;;;;;;13.55;100.00;100084.84;10400221;28;20021;-77
2022/09/16 16:29:39;;;;;;;0.10;0.10;;;;;;;13.48;100.00;100094.69;10404141;28;20067;-77
2022/09/16 16:34:41;;;;;;;0.10;0.10;;;;;;;13.41;100.00;100087.63;10407065;28;20109;-77
2022/09/16 16:39:43;;;;;;;0.10;0.10;;;;;;;13.33;100.00;100096.66;10382883;28;20025;-77
2022/09/16 16:44:44;;;;;;;0.10;0.10;;;;;;;13.24;100.00;100103.97;10390268;28;20025;-77
2022/09/16 16:49:44;;;;;;;0.10;0.10;;;;;;;13.16;100.00;100105.94;10379079;28;20484;-77
2022/09/16 16:54:45;;;;;;;0.10;0.10;;;;;;;13.05;100.00;100102.75;10385114;28;20029;-77
2022/09/16 16:59:45;;;;;;;0.10;0.10;;;;;;;13.00;100.00;100123.91;10405546;28;20021;-77
2022/09/16 17:04:46;;;;;;;0.10;0.10;;;;;;;12.96;100.00;100121.81;10410709;28;20032;-77
2022/09/16 17:09:48;;;;;;;0.10;0.10;;;;;;;12.95;100.00;100134.34;10373887;28;20116;-77
2022/09/16 17:14:48;;;;;;;0.10;0.10;;;;;;;12.94;100.00;100135.34;10409051;28;20029;-77
2022/09/16 17:19:49;;;;;;;0.10;0.10;;;;;;;12.92;100.00;100145.44;10387300;28;20030;-77
2022/09/16 17:24:49;;;;;;;0.10;0.10;;;;;;;12.86;100.00;100159.56;10386352;28;20496;-77
2022/09/16 17:29:49;;;;;;;0.10;0.10;;;;;;;12.77;100.00;100166.03;10405697;28;20025;-77
2022/09/16 17:34:49;;;;;;;0.10;0.10;;;;;;;12.72;100.00;100163.09;10411514;28;20492;-77
2022/09/16 17:39:50;;;;;;;0.10;0.10;;;;;;;12.69;100.00;100175.81;10398760;28;20022;-77
2022/09/16 17:44:50;;;;;;;0.10;0.10;;;;;;;12.66;100.00;100180.72;10403136;28;20033;-77
2022/09/16 17:49:51;;;;;;;0.10;0.10;;;;;;;12.59;100.00;100185.16;10407769;28;20027;-77
2022/09/16 17:54:52;;;;;;;0.10;0.10;;;;;;;12.48;100.00;100193.63;10411504;28;20370;-77
2022/09/16 17:59:52;;;;;;;0.10;0.10;;;;;;;12.42;100.00;100187.19;10396152;28;20022;-77
2022/09/16 18:04:53;;;;;;;0.10;0.10;;;;;;;12.32;100.00;100187.50;10382917;28;20112;-77
2022/09/16 18:09:53;;;;;;;0.10;0.10;;;;;;;12.23;100.00;100192.09;10388936;28;20025;-76
2022/09/16 18:14:53;;;;;;;0.10;0.10;;;;;;;12.17;100.00;100202.72;10394164;28;20022;-76
2022/09/16 18:19:54;;;;;;;0.10;0.10;;;;;;;12.11;100.00;100201.59;10378694;28;20065;-76
2022/09/16 18:24:54;;;;;;;0.00;0.00;;;;;;;12.05;100.00;100207.69;10378554;28;20055;-76
2022/09/16 18:29:56;;;;;;;0.10;0.10;;;;;;;12.00;100.00;100212.72;10389064;28;20540;-76
2022/09/16 18:34:56;;;;;;;0.10;0.10;;;;;;;11.93;100.00;100212.66;10388118;28;20018;-76
2022/09/16 18:39:57;;;;;;;0.10;0.10;;;;;;;11.89;100.00;100229.19;10382249;28;20022;-76
2022/09/16 18:44:57;;;;;;;0.10;0.10;;;;;;;11.83;100.00;100225.38;10384946;28;20018;-77
2022/09/16 18:49:57;;;;;;;0.10;0.10;;;;;;;11.82;100.00;100239.75;10387859;28;20022;-77
2022/09/16 18:54:58;;;;;;;0.10;0.10;;;;;;;11.80;100.00;100233.75;10383707;28;20100;-77
2022/09/16 18:59:58;;;;;;;0.00;0.00;;;;;;;11.76;100.00;100246.63;10409313;28;20464;-76
2022/09/16 19:04:59;;;;;;;0.10;0.10;;;;;;;11.69;100.00;100247.53;10406210;28;20029;-76
2022/09/16 19:09:59;;;;;;;0.10;0.10;;;;;;;11.62;100.00;100249.28;10387276;28;20374;-77
2022/09/16 19:14:59;;;;;;;0.10;0.10;;;;;;;11.52;100.00;100260.19;10397951;28;20029;-77
2022/09/16 19:20:00;;;;;;;0.10;0.10;;;;;;;11.44;100.00;100269.06;10399990;28;21095;-77
2022/09/16 19:25:00;;;;;;;0.03;0.03;;;;;;;11.40;100.00;100264.25;10388570;28;20014;-76
2022/09/16 19:30:01;;;;;;;0.10;0.10;;;;;;;11.38;100.00;100272.47;10394439;28;20014;-77
2022/09/16 19:35:01;;;;;;;0.10;0.10;;;;;;;11.35;100.00;100278.16;10391660;28;20076;-76
2022/09/16 19:40:02;;;;;;;0.10;0.10;;;;;;;11.29;100.00;100277.03;10386185;28;20033;-77
2022/09/16 19:45:03;;;;;;;0.05;0.05;;;;;;;11.26;100.00;100293.38;10405041;28;20438;-77
2022/09/16 19:50:04;;;;;;;0.10;0.10;;;;;;;11.23;100.00;100295.56;10404501;28;20164;-77
2022/09/16 19:55:08;;;;;;;0.10;0.10;;;;;;;11.19;100.00;100300.41;10398440;28;20385;-77
2022/09/16 20:00:13;;;;;;;0.10;0.10;;;;;;;11.17;100.00;100302.44;10376713;28;20164;-76
2022/09/16 20:05:13;;;;;;;0.08;0.08;;;;;;;11.14;100.00;100307.25;10387639;28;20072;-77
2022/09/16 20:10:13;;;;;;;0.00;0.00;;;;;;;11.10;100.00;100307.59;10387592;28;20053;-77
2022/09/16 20:15:14;;;;;;;0.00;0.00;;;;;;;11.08;100.00;100308.78;10387443;28;20117;-77
2022/09/16 20:20:14;;;;;;;0.10;0.10;;;;;;;11.05;100.00;100307.31;10403674;28;20049;-77
2022/09/16 20:25:14;;;;;;;0.10;0.10;;;;;;;11.06;100.00;100310.81;10393983;28;20290;-77
2022/09/16 20:30:15;;;;;;;0.10;0.10;;;;;;;11.06;100.00;100314.31;10390277;28;20022;-76
2022/09/16 20:35:15;;;;;;;0.10;0.10;;;;;;;11.05;100.00;100311.81;10409236;28;20021;-77
2022/09/16 20:40:15;;;;;;;0.10;0.10;;;;;;;11.03;100.00;100317.31;10383617;28;20038;-76
2022/09/16 20:45:16;;;;;;;0.10;0.10;;;;;;;11.03;100.00;100321.81;10398904;28;20037;-77
2022/09/16 20:50:16;;;;;;;0.00;0.00;;;;;;;11.03;100.00;100333.31;10408027;23;20464;-76
2022/09/16 20:55:16;;;;;;;0.03;0.03;;;;;;;11.03;100.00;100333.31;10413706;28;20029;-75
2022/09/16 21:00:17;;;;;;;0.10;0.10;;;;;;;10.99;100.00;100337.31;10413335;28;20030;-75
2022/09/16 21:05:17;;;;;;;0.07;0.07;;;;;;;10.94;100.00;100342.34;10413392;28;20511;-76
2022/09/16 21:10:18;;;;;;;0.00;0.00;;;;;;;10.92;100.00;100348.84;10396150;28;20414;-76
2022/09/16 21:15:18;;;;;;;0.00;0.00;;;;;;;10.94;100.00;100358.34;10397595;28;20039;-75
2022/09/16 21:20:19;;;;;;;0.10;0.10;;;;;;;10.94;100.00;100363.69;10414279;28;20108;-75
2022/09/16 21:25:20;;;;;;;0.05;0.05;;;;;;;11.00;100.00;100372.81;10412549;28;20021;-75
2022/09/16 21:30:20;;;;;;;0.00;0.00;;;;;;;11.07;100.00;100365.78;10394932;28;20553;-76
2022/09/16 21:35:21;;;;;;;0.10;0.10;;;;;;;11.15;100.00;100365.75;10412214;28;20025;-75
2022/09/16 21:40:22;;;;;;;0.00;0.00;;;;;;;11.20;100.00;100370.53;10412455;28;20033;-75
2022/09/16 21:45:23;;;;;;;0.00;0.00;;;;;;;11.24;100.00;100372.69;10411863;28;20404;-75
2022/09/16 21:50:23;;;;;;;0.10;0.10;;;;;;;11.36;100.00;100380.31;10411522;28;20013;-75
2022/09/16 21:55:23;;;;;;;0.03;0.03;;;;;;;11.48;100.00;100384.22;10411491;28;20025;-76
2022/09/16 22:00:23;;;;;;;0.10;0.10;;;;;;;11.52;100.00;100388.22;10411327;28;20104;-76
2022/09/16 22:05:24;;;;;;;0.10;0.10;;;;;;;11.50;100.00;100384.88;10411263;28;20396;-75
2022/09/16 22:10:25;;;;;;;0.10;0.10;;;;;;;11.55;100.00;100398.53;10410986;28;20033;-75
2022/09/16 22:15:26;;;;;;;0.10;0.10;;;;;;;11.64;100.00;100404.66;10410223;28;20021;-75
2022/09/16 22:20:26;;;;;;;0.10;0.10;;;;;;;11.83;100.00;100401.50;10355342;28;20029;-75
2022/09/16 22:25:26;;;;;;;0.05;0.05;;;;;;;12.06;100.00;100412.19;10390480;28;20104;-75
2022/09/16 22:30:26;;;;;;;0.00;0.00;;;;;;;12.15;100.00;100415.63;10410785;28;20097;-75
2022/09/16 22:35:27;;;;;;;0.10;0.10;;;;;;;12.16;100.00;100410.13;10392331;28;20021;-75
2022/09/16 22:40:27;;;;;;;0.10;0.10;;;;;;;12.14;100.00;100411.31;10381786;28;20564;-75
2022/09/16 22:45:27;;;;;;;0.10;0.10;;;;;;;12.11;100.00;100417.84;10374687;28;20622;-75
2022/09/16 22:50:28;;;;;;;0.10;0.10;;;;;;;12.07;100.00;100429.91;10387815;28;20025;-75
2022/09/16 22:55:28;;;;;;;0.10;0.10;;;;;;;12.06;100.00;100430.88;10377114;28;20033;-75
2022/09/16 23:00:28;;;;;;;0.10;0.10;;;;;;;12.10;100.00;100429.53;10383575;28;20025;-75
2022/09/16 23:05:29;;;;;;;0.10;0.10;;;;;;;12.12;100.00;100429.34;10391986;28;20075;-75
2022/09/16 23:10:29;;;;;;;0.00;0.00;;;;;;;12.11;100.00;100433.88;10386133;28;20473;-75
2022/09/16 23:15:29;;;;;;;0.10;0.10;;;;;;;12.09;100.00;100427.03;10367054;28;20369;-75
2022/09/16 23:20:30;;;;;;;0.10;0.10;;;;;;;12.05;100.00;100423.91;10393062;28;20030;-75
2022/09/16 23:25:33;;;;;;;0.10;0.10;;;;;;;12.02;100.00;100431.44;10362815;28;20022;-76